Time;durP1;ratioP1;P1;durP2;ratioP2;P2;SDS_P1;SDS_P2;PMS_P1;PMS_P2;Temp;Humidity;BMP_temperature;BMP_pressure;BME280_temperature;BME280_humidity;BME280_pressure;Samples;Min_cycle;Max_cycle;Signal;HPM_P1;HPM_P2
2022/08/04 00:01:42;;;;;;;32.85;17.27;;;;;;;;;;5075312;28;20028;-80
2022/08/04 00:04:12;;;;;;;24.17;13.90;;;;;;;;;;5075012;28;20372;-80
2022/08/04 00:06:47;;;;;;;11.10;10.05;;;;;;;;;;5075397;28;20028;-80
2022/08/04 00:09:23;;;;;;;9.77;8.90;;;;;;;;;;5075527;28;20028;-79
2022/08/04 00:11:51;;;;;;;9.30;8.50;;;;;;;;;;5073841;28;20040;-82
2022/08/04 00:14:21;;;;;;;8.82;8.20;;;;;;;;;;5073894;28;20027;-82
2022/08/04 00:16:48;;;;;;;9.13;8.13;;;;;;;;;;5074273;28;20033;-82
2022/08/04 00:19:41;;;;;;;8.57;7.78;;;;;;;;;;5075393;28;20028;-82
2022/08/04 00:22:09;;;;;;;8.93;8.13;;;;;;;;;;5069029;28;20040;-82
2022/08/04 00:24:35;;;;;;;9.35;8.50;;;;;;;;;;5073689;28;20103;-82
2022/08/04 00:27:01;;;;;;;8.95;8.23;;;;;;;;;;5075436;28;20071;-82
2022/08/04 00:29:27;;;;;;;9.27;8.38;;;;;;;;;;5073580;28;20028;-82
2022/08/04 00:31:54;;;;;;;9.82;8.88;;;;;;;;;;5056974;28;20058;-82
2022/08/04 00:34:19;;;;;;;11.57;9.07;;;;;;;;;;5073863;28;20103;-82
2022/08/04 00:36:47;;;;;;;11.60;9.35;;;;;;;;;;5074731;28;20440;-82
2022/08/04 00:39:13;;;;;;;11.70;9.60;;;;;;;;;;5074706;28;20013;-82
2022/08/04 00:41:51;;;;;;;10.85;8.70;;;;;;;;;;5074056;28;20032;-82
2022/08/04 00:44:28;;;;;;;9.93;9.02;;;;;;;;;;5073343;28;20132;-82
2022/08/04 00:47:12;;;;;;;8.90;8.07;;;;;;;;;;5074778;28;20046;-78
2022/08/04 00:49:44;;;;;;;9.63;8.05;;;;;;;;;;5074952;28;20052;-79
2022/08/04 00:52:22;;;;;;;11.88;8.50;;;;;;;;;;5074379;28;20385;-78
2022/08/04 00:55:00;;;;;;;9.52;8.45;;;;;;;;;;5073429;28;20029;-78
2022/08/04 00:57:44;;;;;;;11.20;10.07;;;;;;;;;;5074566;28;20020;-78
2022/08/04 01:00:11;;;;;;;9.45;8.55;;;;;;;;;;5074799;28;20047;-78
2022/08/04 01:02:55;;;;;;;9.57;8.65;;;;;;;;;;5074256;28;20460;-80
2022/08/04 01:05:36;;;;;;;8.90;8.05;;;;;;;;;;5074731;28;20043;-80
2022/08/04 01:08:06;;;;;;;9.25;7.50;;;;;;;;;;5074382;28;20071;-80
2022/08/04 01:10:53;;;;;;;9.17;8.27;;;;;;;;;;5074391;28;20020;-82
2022/08/04 01:13:25;;;;;;;8.88;8.07;;;;;;;;;;5073145;28;20029;-82
2022/08/04 01:16:04;;;;;;;9.43;8.13;;;;;;;;;;5055401;28;20446;-82
2022/08/04 01:18:33;;;;;;;9.52;8.73;;;;;;;;;;5072878;28;20078;-81
2022/08/04 01:20:59;;;;;;;9.45;8.73;;;;;;;;;;5072707;28;20030;-81
2022/08/04 01:23:43;;;;;;;8.80;8.00;;;;;;;;;;5056032;28;20480;-81
2022/08/04 01:26:32;;;;;;;8.52;7.72;;;;;;;;;;5074187;28;20366;-81
2022/08/04 01:29:08;;;;;;;8.73;8.00;;;;;;;;;;5072492;28;20024;-80
2022/08/04 01:31:34;;;;;;;9.57;7.65;;;;;;;;;;5074313;28;20020;-82
2022/08/04 01:34:03;;;;;;;8.45;7.75;;;;;;;;;;5072524;28;20484;-82
2022/08/04 01:36:32;;;;;;;8.52;7.78;;;;;;;;;;5074053;28;20028;-82
2022/08/04 01:41:49;;;;;;;8.95;8.25;;;;;;;;;;5074243;28;20028;-78
2022/08/04 01:44:17;;;;;;;11.93;8.73;;;;;;;;;;5073968;28;20105;-77
2022/08/04 01:46:44;;;;;;;9.20;8.30;;;;;;;;;;5073926;28;20586;-77
2022/08/04 01:49:10;;;;;;;8.23;7.55;;;;;;;;;;5073693;28;20070;-77
2022/08/04 01:51:38;;;;;;;9.02;8.13;;;;;;;;;;5072757;28;20047;-80
2022/08/04 01:54:06;;;;;;;9.32;8.48;;;;;;;;;;5072428;28;20037;-79
2022/08/04 01:56:31;;;;;;;8.85;8.05;;;;;;;;;;5073800;28;20456;-80
2022/08/04 01:58:58;;;;;;;9.02;8.13;;;;;;;;;;5073441;28;20032;-80
2022/08/04 02:01:24;;;;;;;8.38;7.68;;;;;;;;;;5073997;28;20032;-80
2022/08/04 02:03:55;;;;;;;8.23;7.57;;;;;;;;;;5073445;28;20464;-79
2022/08/04 02:06:23;;;;;;;8.18;7.47;;;;;;;;;;5072435;28;20046;-79
2022/08/04 02:08:58;;;;;;;7.88;7.07;;;;;;;;;;5073403;28;20024;-79
2022/08/04 02:11:23;;;;;;;8.05;7.45;;;;;;;;;;5073663;28;20079;-78
2022/08/04 02:13:49;;;;;;;8.70;7.70;;;;;;;;;;5073355;28;20475;-79
2022/08/04 02:16:26;;;;;;;8.88;8.13;;;;;;;;;;5072431;28;20107;-81
2022/08/04 02:19:21;;;;;;;8.98;8.18;;;;;;;;;;5073363;28;20548;-78
2022/08/04 02:21:49;;;;;;;7.88;7.18;;;;;;;;;;5059906;28;20395;-77
2022/08/04 02:24:17;;;;;;;8.07;7.43;;;;;;;;;;5073256;28;20027;-76
2022/08/04 02:26:46;;;;;;;8.40;7.60;;;;;;;;;;5072576;28;20033;-80
2022/08/04 02:29:31;;;;;;;8.35;7.70;;;;;;;;;;5077130;28;20064;-78
2022/08/04 02:32:04;;;;;;;8.20;7.53;;;;;;;;;;5077766;28;20075;-78
2022/08/04 02:34:32;;;;;;;8.02;7.32;;;;;;;;;;5077800;28;20189;-77
2022/08/04 02:36:58;;;;;;;7.70;6.95;;;;;;;;;;5077323;28;20414;-77
2022/08/04 02:39:31;;;;;;;7.97;7.28;;;;;;;;;;5077252;28;20036;-77
2022/08/04 02:41:57;;;;;;;8.38;7.53;;;;;;;;;;5077214;28;20036;-77
2022/08/04 02:44:25;;;;;;;8.25;7.45;;;;;;;;;;5076562;28;20074;-78
2022/08/04 02:46:52;;;;;;;7.70;7.10;;;;;;;;;;5077115;28;20025;-79
2022/08/04 02:49:19;;;;;;;7.93;7.32;;;;;;;;;;5076485;28;20067;-78
2022/08/04 02:51:51;;;;;;;9.13;8.32;;;;;;;;;;5076958;28;20052;-78
2022/08/04 02:54:17;;;;;;;8.48;7.78;;;;;;;;;;5076772;28;20048;-78
2022/08/04 02:56:46;;;;;;;8.35;7.57;;;;;;;;;;5075765;28;20051;-78
2022/08/04 02:59:12;;;;;;;10.10;8.25;;;;;;;;;;5076586;28;20472;-79
2022/08/04 03:01:38;;;;;;;8.85;7.95;;;;;;;;;;5075317;28;20031;-76
2022/08/04 03:04:22;;;;;;;8.95;8.07;;;;;;;;;;5076536;28;20036;-76
2022/08/04 03:06:57;;;;;;;8.45;7.75;;;;;;;;;;5077044;28;20032;-76
2022/08/04 03:09:29;;;;;;;8.85;8.20;;;;;;;;;;5076354;28;20499;-76
2022/08/04 03:12:10;;;;;;;8.65;7.88;;;;;;;;;;5076441;28;20028;-76
2022/08/04 03:14:36;;;;;;;8.73;7.93;;;;;;;;;;5076363;28;20025;-76
2022/08/04 03:17:07;;;;;;;8.88;8.02;;;;;;;;;;5076617;28;20095;-76
2022/08/04 03:20:02;;;;;;;8.85;7.60;;;;;;;;;;5076217;28;20028;-78
2022/08/04 03:22:30;;;;;;;8.07;7.38;;;;;;;;;;5063476;28;20052;-77
2022/08/04 03:25:04;;;;;;;7.35;6.75;;;;;;;;;;5076431;28;20365;-77
2022/08/04 03:27:51;;;;;;;7.53;6.75;;;;;;;;;;5075271;28;20032;-77
2022/08/04 03:30:37;;;;;;;7.47;6.88;;;;;;;;;;5058102;28;20518;-78
2022/08/04 03:33:06;;;;;;;8.27;6.65;;;;;;;;;;5065202;28;20075;-77
2022/08/04 03:35:43;;;;;;;7.10;6.60;;;;;;;;;;5075345;28;20150;-78
2022/08/04 03:38:12;;;;;;;7.05;5.93;;;;;;;;;;5074443;28;20480;-78
2022/08/04 03:40:52;;;;;;;7.40;6.80;;;;;;;;;;5074519;28;20025;-81
2022/08/04 03:43:21;;;;;;;6.82;6.15;;;;;;;;;;5074568;28;20029;-80
2022/08/04 03:46:06;;;;;;;6.78;6.18;;;;;;;;;;5076057;28;20368;-79
2022/08/04 03:48:46;;;;;;;6.38;5.97;;;;;;;;;;5075922;28;20032;-78
2022/08/04 03:54:06;;;;;;;6.05;5.65;;;;;;;;;;5075742;28;20060;-81
2022/08/04 03:56:34;;;;;;;6.78;6.28;;;;;;;;;;5074322;28;20025;-81
2022/08/04 03:59:03;;;;;;;6.75;6.30;;;;;;;;;;5075806;28;20033;-81
2022/08/04 04:01:46;;;;;;;6.68;6.13;;;;;;;;;;5075149;28;20406;-79
2022/08/04 04:04:30;;;;;;;6.82;6.32;;;;;;;;;;5075501;28;20038;-78
2022/08/04 04:07:22;;;;;;;6.50;6.00;;;;;;;;;;5074112;28;20056;-79
2022/08/04 04:09:59;;;;;;;6.93;6.53;;;;;;;;;;5075211;28;20039;-79
2022/08/04 04:13:02;;;;;;;6.75;6.18;;;;;;;;;;5075267;28;20035;-80
2022/08/04 04:15:37;;;;;;;6.32;5.78;;;;;;;;;;5074594;28;20035;-82
2022/08/04 04:18:21;;;;;;;6.45;5.95;;;;;;;;;;5074175;28;20032;-77
2022/08/04 04:21:06;;;;;;;7.35;5.90;;;;;;;;;;5075654;28;20032;-77
2022/08/04 04:23:49;;;;;;;6.18;5.72;;;;;;;;;;5075476;28;20460;-76
2022/08/04 04:26:31;;;;;;;6.03;5.40;;;;;;;;;;5075037;28;20602;-78
2022/08/04 04:28:56;;;;;;;9.52;6.30;;;;;;;;;;5075287;28;20028;-77
2022/08/04 04:31:33;;;;;;;7.82;6.40;;;;;;;;;;5075010;28;20504;-77
2022/08/04 04:34:08;;;;;;;6.18;5.60;;;;;;;;;;5075137;28;20075;-78
2022/08/04 04:36:33;;;;;;;5.35;4.95;;;;;;;;;;5075260;28;20518;-77
2022/08/04 04:39:02;;;;;;;5.88;5.35;;;;;;;;;;5075366;28;20021;-78
2022/08/04 04:41:33;;;;;;;5.70;5.20;;;;;;;;;;5075242;28;20031;-78
2022/08/04 04:44:11;;;;;;;5.85;5.43;;;;;;;;;;5056818;28;20036;-78
2022/08/04 04:46:37;;;;;;;5.72;5.38;;;;;;;;;;5074796;28;20384;-78
2022/08/04 04:49:21;;;;;;;5.80;5.18;;;;;;;;;;5074470;28;20025;-79
2022/08/04 04:52:03;;;;;;;5.47;5.07;;;;;;;;;;5053474;28;20386;-79
2022/08/04 04:54:39;;;;;;;6.18;5.57;;;;;;;;;;5074757;28;20023;-78
2022/08/04 04:57:13;;;;;;;6.13;5.72;;;;;;;;;;5074629;28;20457;-78
2022/08/04 04:59:46;;;;;;;7.50;5.55;;;;;;;;;;5056892;28;20361;-77
2022/08/04 05:02:12;;;;;;;5.25;4.85;;;;;;;;;;5072957;28;20029;-82
2022/08/04 05:04:39;;;;;;;5.30;4.80;;;;;;;;;;5074541;28;20506;-82
2022/08/04 05:07:25;;;;;;;5.32;4.90;;;;;;;;;;5072866;28;20043;-82
2022/08/04 05:09:57;;;;;;;5.40;5.00;;;;;;;;;;5074288;28;20028;-82
2022/08/04 05:12:43;;;;;;;4.93;4.63;;;;;;;;;;5074366;28;20032;-80
2022/08/04 05:15:10;;;;;;;5.10;4.70;;;;;;;;;;5074383;28;20025;-78
2022/08/04 05:17:45;;;;;;;4.60;4.25;;;;;;;;;;5056414;28;20103;-80
2022/08/04 05:20:17;;;;;;;5.00;4.60;;;;;;;;;;5074330;28;20103;-79
2022/08/04 05:22:44;;;;;;;6.50;4.93;;;;;;;;;;5074472;28;20107;-78
2022/08/04 05:25:24;;;;;;;5.32;4.82;;;;;;;;;;5074131;28;20150;-78
2022/08/04 05:28:04;;;;;;;4.60;4.20;;;;;;;;;;5072828;28;20582;-78
2022/08/04 05:30:33;;;;;;;4.97;4.57;;;;;;;;;;5073037;28;20521;-78
2022/08/04 05:33:02;;;;;;;5.13;4.72;;;;;;;;;;5055045;28;20031;-78
2022/08/04 05:35:42;;;;;;;4.47;4.18;;;;;;;;;;5073612;28;20025;-78
2022/08/04 05:38:08;;;;;;;4.43;4.15;;;;;;;;;;5071563;28;20029;-78
2022/08/04 05:40:33;;;;;;;4.45;4.15;;;;;;;;;;5070353;28;20024;-76
2022/08/04 05:43:00;;;;;;;4.70;4.40;;;;;;;;;;5072487;28;20029;-78
2022/08/04 05:45:25;;;;;;;3.97;3.65;;;;;;;;;;5072027;28;20036;-77
2022/08/04 05:47:52;;;;;;;7.82;4.40;;;;;;;;;;5071930;28;20032;-77
2022/08/04 05:50:18;;;;;;;4.78;4.38;;;;;;;;;;5070848;28;20100;-78
2022/08/04 05:52:44;;;;;;;4.57;4.28;;;;;;;;;;5068983;28;20160;-77
2022/08/04 05:55:11;;;;;;;4.55;4.18;;;;;;;;;;5070060;28;20127;-78
2022/08/04 05:57:40;;;;;;;4.45;4.05;;;;;;;;;;5072009;28;20031;-77
2022/08/04 06:00:06;;;;;;;5.15;4.00;;;;;;;;;;5071063;28;20024;-77
2022/08/04 06:02:33;;;;;;;4.50;4.20;;;;;;;;;;5072324;28;20024;-79
2022/08/04 06:04:59;;;;;;;4.32;4.03;;;;;;;;;;5072477;28;20056;-67
2022/08/04 06:07:25;;;;;;;4.22;4.00;;;;;;;;;;5071141;28;20044;-76
2022/08/04 06:09:51;;;;;;;6.30;4.03;;;;;;;;;;5072302;28;20017;-76
2022/08/04 06:12:22;;;;;;;4.53;4.22;;;;;;;;;;5072261;28;20025;-76
2022/08/04 06:14:49;;;;;;;4.55;4.20;;;;;;;;;;5071022;28;20387;-76
2022/08/04 06:17:23;;;;;;;4.50;4.10;;;;;;;;;;5071152;28;20027;-77
2022/08/04 06:19:48;;;;;;;4.80;4.40;;;;;;;;;;5071517;28;20512;-77
2022/08/04 06:22:16;;;;;;;4.68;3.85;;;;;;;;;;5072150;28;20151;-78
2022/08/04 06:24:44;;;;;;;4.40;4.20;;;;;;;;;;5073271;28;20476;-78
2022/08/04 06:27:10;;;;;;;4.93;4.00;;;;;;;;;;5072199;28;20028;-78
2022/08/04 06:29:39;;;;;;;4.75;4.38;;;;;;;;;;5073241;28;20039;-63
2022/08/04 06:32:25;;;;;;;4.80;4.40;;;;;;;;;;5073182;28;20013;-78
2022/08/04 06:34:53;;;;;;;4.95;4.47;;;;;;;;;;5073078;28;20037;-78
2022/08/04 06:37:19;;;;;;;6.07;5.45;;;;;;;;;;5073136;28;20453;-78
2022/08/04 06:39:45;;;;;;;5.03;4.70;;;;;;;;;;5073085;28;20029;-78
2022/08/04 06:42:12;;;;;;;7.20;6.50;;;;;;;;;;5073003;28;20051;-78
2022/08/04 06:44:41;;;;;;;7.60;6.90;;;;;;;;;;5071823;28;20119;-78
2022/08/04 06:47:07;;;;;;;5.22;4.93;;;;;;;;;;5072928;28;20147;-78
2022/08/04 06:49:33;;;;;;;5.10;4.60;;;;;;;;;;5072721;28;20115;-78
2022/08/04 06:51:59;;;;;;;7.97;6.93;;;;;;;;;;5069778;28;20119;-78
2022/08/04 06:54:27;;;;;;;5.13;4.72;;;;;;;;;;5070696;28;20025;-78
2022/08/04 06:56:53;;;;;;;5.57;5.20;;;;;;;;;;5071952;28;20021;-78
2022/08/04 06:59:21;;;;;;;4.55;4.15;;;;;;;;;;5071049;28;20032;-78
2022/08/04 07:01:47;;;;;;;4.25;3.95;;;;;;;;;;5072723;28;20025;-78
2022/08/04 07:04:12;;;;;;;4.07;3.78;;;;;;;;;;5071703;28;20028;-78
2022/08/04 07:06:41;;;;;;;4.05;3.75;;;;;;;;;;5072946;28;20074;-78
2022/08/04 07:09:07;;;;;;;3.13;2.92;;;;;;;;;;5072658;28;20029;-78
2022/08/04 07:11:32;;;;;;;3.40;3.15;;;;;;;;;;5072753;28;20104;-78
2022/08/04 07:13:59;;;;;;;5.60;2.97;;;;;;;;;;5073387;28;20028;-78
2022/08/04 07:16:25;;;;;;;3.40;3.13;;;;;;;;;;5058409;28;20017;-78
2022/08/04 07:18:50;;;;;;;2.80;2.60;;;;;;;;;;5074608;28;20037;-78
2022/08/04 07:21:22;;;;;;;2.90;2.70;;;;;;;;;;5073998;28;20055;-78
2022/08/04 07:23:48;;;;;;;5.70;2.50;;;;;;;;;;5073852;28;20047;-78
2022/08/04 07:26:16;;;;;;;2.70;2.50;;;;;;;;;;5075089;28;20502;-78
2022/08/04 07:28:41;;;;;;;2.67;2.58;;;;;;;;;;5074920;28;20036;-78
2022/08/04 07:31:08;;;;;;;2.78;2.58;;;;;;;;;;5073872;28;20029;-79
2022/08/04 07:33:34;;;;;;;2.60;2.30;;;;;;;;;;5075018;28;20025;-76
2022/08/04 07:36:00;;;;;;;3.00;2.38;;;;;;;;;;5074975;28;20384;-76
2022/08/04 07:38:25;;;;;;;3.75;2.72;;;;;;;;;;5075000;28;20494;-76
2022/08/04 07:40:50;;;;;;;3.80;2.72;;;;;;;;;;5074940;28;20027;-76
2022/08/04 07:43:16;;;;;;;4.88;2.90;;;;;;;;;;5074938;28;20484;-76
2022/08/04 07:45:41;;;;;;;2.60;2.45;;;;;;;;;;5072445;28;20017;-76
2022/08/04 07:48:08;;;;;;;3.03;2.83;;;;;;;;;;5073310;28;20071;-76
2022/08/04 07:50:33;;;;;;;3.28;3.08;;;;;;;;;;5074613;28;20043;-76
2022/08/04 07:53:00;;;;;;;2.70;2.60;;;;;;;;;;5074523;28;20504;-76
2022/08/04 07:55:27;;;;;;;3.90;3.70;;;;;;;;;;5073726;28;20037;-76
2022/08/04 07:57:52;;;;;;;3.75;3.13;;;;;;;;;;5074708;28;20380;-76
2022/08/04 08:00:18;;;;;;;4.63;2.70;;;;;;;;;;5073243;28;20035;-76
2022/08/04 08:02:47;;;;;;;3.40;3.20;;;;;;;;;;5072296;28;20028;-76
2022/08/04 08:05:15;;;;;;;3.40;3.20;;;;;;;;;;5074227;28;20025;-75
2022/08/04 08:07:43;;;;;;;2.92;2.72;;;;;;;;;;5074362;28;20024;-76
2022/08/04 08:10:13;;;;;;;3.15;3.00;;;;;;;;;;5074319;28;20029;-76
2022/08/04 08:12:39;;;;;;;3.47;2.67;;;;;;;;;;5074320;28;20423;-76
2022/08/04 08:15:05;;;;;;;2.63;2.53;;;;;;;;;;5074249;28;20013;-76
2022/08/04 08:17:31;;;;;;;2.60;2.50;;;;;;;;;;5074164;28;20388;-76
2022/08/04 08:19:56;;;;;;;3.17;3.00;;;;;;;;;;5074228;28;20032;-76
2022/08/04 08:22:21;;;;;;;5.35;2.80;;;;;;;;;;5073999;28;20031;-76
2022/08/04 08:24:47;;;;;;;2.45;2.35;;;;;;;;;;5072588;28;20017;-76
2022/08/04 08:27:12;;;;;;;2.90;2.70;;;;;;;;;;5072900;28;20479;-75
2022/08/04 08:29:38;;;;;;;2.80;2.60;;;;;;;;;;5073844;28;20024;-76
2022/08/04 08:32:04;;;;;;;2.85;2.65;;;;;;;;;;5073856;28;20033;-76
2022/08/04 08:34:31;;;;;;;2.67;2.58;;;;;;;;;;5073812;28;20017;-76
2022/08/04 08:36:59;;;;;;;3.67;3.00;;;;;;;;;;5073746;28;20115;-75
2022/08/04 08:39:27;;;;;;;2.60;2.40;;;;;;;;;;5073683;28;20021;-76
2022/08/04 08:42:11;;;;;;;2.50;2.40;;;;;;;;;;5072536;28;20024;-76
2022/08/04 08:45:06;;;;;;;2.97;2.83;;;;;;;;;;5073974;28;20025;-76
2022/08/04 08:47:38;;;;;;;3.05;2.72;;;;;;;;;;5073559;28;20539;-76
2022/08/04 08:50:09;;;;;;;3.50;3.10;;;;;;;;;;5073493;28;20495;-76
2022/08/04 08:52:59;;;;;;;3.30;3.00;;;;;;;;;;5072870;28;20044;-76
2022/08/04 08:56:03;;;;;;;4.97;2.65;;;;;;;;;;5045475;28;20369;-76
2022/08/04 08:58:37;;;;;;;4.55;2.70;;;;;;;;;;5015455;28;20124;-76
2022/08/04 09:01:03;;;;;;;3.05;2.75;;;;;;;;;;5031949;28;20041;-76
2022/08/04 09:03:47;;;;;;;3.00;2.72;;;;;;;;;;5036804;28;20123;-75
2022/08/04 09:06:16;;;;;;;2.72;2.60;;;;;;;;;;5073199;28;20021;-76
2022/08/04 09:09:04;;;;;;;2.83;2.63;;;;;;;;;;5071427;28;20069;-75
2022/08/04 09:11:38;;;;;;;2.42;2.30;;;;;;;;;;5065463;28;20037;-75
2022/08/04 09:14:21;;;;;;;7.40;2.95;;;;;;;;;;5071897;28;20481;-76
2022/08/04 09:16:59;;;;;;;2.72;2.63;;;;;;;;;;5073050;28;20431;-76
2022/08/04 09:19:31;;;;;;;5.15;3.05;;;;;;;;;;5072935;28;20032;-75
2022/08/04 09:21:58;;;;;;;4.25;3.08;;;;;;;;;;5072757;28;20036;-76
2022/08/04 09:24:28;;;;;;;3.08;2.88;;;;;;;;;;5071499;28;20027;-75
2022/08/04 09:26:56;;;;;;;2.42;2.22;;;;;;;;;;5073269;28;20029;-75
2022/08/04 09:29:42;;;;;;;2.50;2.40;;;;;;;;;;5072723;28;20025;-75
2022/08/04 09:32:22;;;;;;;2.60;2.40;;;;;;;;;;5065190;28;20044;-75
2022/08/04 09:35:06;;;;;;;4.50;3.25;;;;;;;;;;5072675;28;20020;-76
2022/08/04 09:37:38;;;;;;;3.15;2.88;;;;;;;;;;5072175;28;20039;-76
2022/08/04 09:40:10;;;;;;;2.70;2.50;;;;;;;;;;5074103;28;20377;-76
2022/08/04 09:42:54;;;;;;;2.78;2.67;;;;;;;;;;5072733;28;20025;-76
2022/08/04 09:45:35;;;;;;;4.10;2.92;;;;;;;;;;5072767;28;20054;-75
2022/08/04 09:48:12;;;;;;;2.67;2.58;;;;;;;;;;5072308;28;20474;-76
2022/08/04 09:50:39;;;;;;;3.25;2.95;;;;;;;;;;5072326;28;20115;-75
2022/08/04 09:53:07;;;;;;;2.45;2.33;;;;;;;;;;5072326;28;20086;-76
2022/08/04 09:55:36;;;;;;;2.80;2.55;;;;;;;;;;5072461;28;20028;-76
2022/08/04 09:58:01;;;;;;;2.92;2.72;;;;;;;;;;5072442;28;20020;-76
2022/08/04 10:00:33;;;;;;;3.75;3.10;;;;;;;;;;5072264;28;20531;-76
2022/08/04 10:02:59;;;;;;;2.97;2.78;;;;;;;;;;5072425;28;20039;-76
2022/08/04 10:05:30;;;;;;;2.90;2.72;;;;;;;;;;5072270;28;20104;-76
2022/08/04 10:07:56;;;;;;;3.33;2.97;;;;;;;;;;5071170;28;20032;-76
2022/08/04 10:10:52;;;;;;;4.72;3.05;;;;;;;;;;5072390;28;20031;-76
2022/08/04 10:13:20;;;;;;;4.25;3.10;;;;;;;;;;5035007;28;20040;-76
2022/08/04 10:15:55;;;;;;;3.28;2.97;;;;;;;;;;5072302;28;20031;-76
2022/08/04 10:18:44;;;;;;;3.65;2.70;;;;;;;;;;5070996;28;20060;-76
2022/08/04 10:21:30;;;;;;;2.88;2.78;;;;;;;;;;5072258;28;20029;-76
2022/08/04 10:24:13;;;;;;;2.90;2.80;;;;;;;;;;5072142;28;20036;-76
2022/08/04 10:26:42;;;;;;;4.53;3.20;;;;;;;;;;5072007;28;20059;-76
2022/08/04 10:29:15;;;;;;;3.22;2.97;;;;;;;;;;5072126;28;20056;-76
2022/08/04 10:31:46;;;;;;;3.25;2.88;;;;;;;;;;5070764;28;20029;-76
2022/08/04 10:34:19;;;;;;;3.35;3.15;;;;;;;;;;5072635;28;20020;-76
2022/08/04 10:37:08;;;;;;;2.90;2.70;;;;;;;;;;5072607;28;20025;-77
2022/08/04 10:40:35;;;;;;;3.45;3.17;;;;;;;;;;5073257;28;20539;-76
2022/08/04 10:42:33;;;;;;;4.07;2.80;;;;;;;;;;5073304;28;20033;-76
2022/08/04 10:45:21;;;;;;;2.95;2.85;;;;;;;;;;5073174;28;20070;-76
2022/08/04 10:47:58;;;;;;;3.00;2.90;;;;;;;;;;5073347;28;20025;-76
2022/08/04 10:50:26;;;;;;;3.13;2.97;;;;;;;;;;5074678;28;20035;-76
2022/08/04 10:52:57;;;;;;;3.92;2.60;;;;;;;;;;5075628;28;20044;-76
2022/08/04 10:55:35;;;;;;;3.00;2.90;;;;;;;;;;5074264;28;20466;-76
2022/08/04 10:58:03;;;;;;;3.03;2.83;;;;;;;;;;5076742;28;20056;-76
2022/08/04 11:00:30;;;;;;;3.55;3.25;;;;;;;;;;5076629;28;20021;-77
2022/08/04 11:03:05;;;;;;;3.67;2.80;;;;;;;;;;5074672;28;20090;-77
2022/08/04 11:05:38;;;;;;;3.85;3.13;;;;;;;;;;5075245;28;20016;-76
2022/08/04 11:08:10;;;;;;;4.82;3.03;;;;;;;;;;5075417;28;20502;-76
2022/08/04 11:10:45;;;;;;;3.80;3.45;;;;;;;;;;5075299;28;20028;-76
2022/08/04 11:13:12;;;;;;;3.97;3.42;;;;;;;;;;5075641;28;20028;-76
2022/08/04 11:15:43;;;;;;;4.25;3.65;;;;;;;;;;5075374;28;20017;-76
2022/08/04 11:18:32;;;;;;;3.40;3.20;;;;;;;;;;5073735;28;20614;-77
2022/08/04 11:21:01;;;;;;;3.50;3.20;;;;;;;;;;5065841;28;20044;-76
2022/08/04 11:23:29;;;;;;;3.97;3.13;;;;;;;;;;5074995;28;20027;-76
2022/08/04 11:25:59;;;;;;;3.72;3.42;;;;;;;;;;5075066;28;20052;-76
2022/08/04 11:28:43;;;;;;;3.50;3.20;;;;;;;;;;5075011;28;20032;-77
2022/08/04 11:31:11;;;;;;;3.58;2.78;;;;;;;;;;5073528;28;20021;-76
2022/08/04 11:33:37;;;;;;;3.63;3.20;;;;;;;;;;5073814;28;20114;-76
2022/08/04 11:36:08;;;;;;;2.80;2.60;;;;;;;;;;5074679;28;20112;-76
2022/08/04 11:38:55;;;;;;;2.90;2.70;;;;;;;;;;5076105;28;20392;-76
2022/08/04 11:41:25;;;;;;;3.15;2.92;;;;;;;;;;5074852;28;20036;-76
2022/08/04 11:43:57;;;;;;;3.30;3.10;;;;;;;;;;5074566;28;20085;-76
2022/08/04 11:46:46;;;;;;;3.88;3.58;;;;;;;;;;5074694;28;20032;-76
2022/08/04 11:49:25;;;;;;;3.33;3.03;;;;;;;;;;5068870;28;20119;-76
2022/08/04 11:51:51;;;;;;;3.42;3.22;;;;;;;;;;5074429;28;20105;-76
2022/08/04 11:54:17;;;;;;;3.80;3.50;;;;;;;;;;5074549;28;20047;-76
2022/08/04 11:56:43;;;;;;;4.47;3.63;;;;;;;;;;5074393;28;20468;-77
2022/08/04 11:59:08;;;;;;;4.00;3.55;;;;;;;;;;5074282;28;20032;-76
2022/08/04 12:01:46;;;;;;;3.25;2.95;;;;;;;;;;5073790;28;20032;-76
2022/08/04 12:04:33;;;;;;;3.20;3.00;;;;;;;;;;5073888;28;20032;-76
2022/08/04 12:07:22;;;;;;;3.05;2.85;;;;;;;;;;5074831;28;20563;-77
2022/08/04 12:09:55;;;;;;;3.08;2.88;;;;;;;;;;5055240;28;20040;-76
2022/08/04 12:12:39;;;;;;;2.78;2.63;;;;;;;;;;5073526;28;20407;-76
2022/08/04 12:15:04;;;;;;;3.25;3.05;;;;;;;;;;5073368;28;20039;-76
2022/08/04 12:17:43;;;;;;;2.70;2.60;;;;;;;;;;5056526;28;20021;-77
2022/08/04 12:20:12;;;;;;;3.00;2.80;;;;;;;;;;5074614;28;20571;-76
2022/08/04 12:22:42;;;;;;;5.40;3.20;;;;;;;;;;5074155;28;20456;-76
2022/08/04 12:25:09;;;;;;;4.25;2.90;;;;;;;;;;5073838;28;20030;-76
2022/08/04 12:27:54;;;;;;;3.13;2.92;;;;;;;;;;5073823;28;20016;-76
2022/08/04 12:30:21;;;;;;;3.42;3.13;;;;;;;;;;5072116;28;20165;-76
2022/08/04 12:33:09;;;;;;;3.17;2.97;;;;;;;;;;5072446;28;20028;-76
2022/08/04 12:35:58;;;;;;;2.90;2.80;;;;;;;;;;5073624;28;20035;-76
2022/08/04 12:38:26;;;;;;;6.57;2.90;;;;;;;;;;5069309;28;20052;-76
2022/08/04 12:40:56;;;;;;;3.83;3.42;;;;;;;;;;5074645;28;20056;-76
2022/08/04 12:43:37;;;;;;;3.95;3.67;;;;;;;;;;5073516;28;20116;-77
2022/08/04 12:46:06;;;;;;;3.13;2.95;;;;;;;;;;5074349;28;20457;-77
2022/08/04 12:48:34;;;;;;;3.05;2.53;;;;;;;;;;5074152;28;20630;-77
2022/08/04 12:50:59;;;;;;;2.90;2.72;;;;;;;;;;5071632;28;20369;-75
2022/08/04 12:53:27;;;;;;;2.60;2.47;;;;;;;;;;5070092;28;20097;-76
2022/08/04 12:55:53;;;;;;;2.90;2.70;;;;;;;;;;5072376;28;20021;-76
2022/08/04 12:58:21;;;;;;;3.00;2.80;;;;;;;;;;5073393;28;20105;-76
2022/08/04 13:00:57;;;;;;;2.90;2.70;;;;;;;;;;5073230;28;20017;-77
2022/08/04 13:03:27;;;;;;;61.97;38.90;;;;;;;;;;5071293;28;20123;-76
2022/08/04 13:05:54;;;;;;;330.95;172.48;;;;;;;;;;5071987;28;20024;-76
2022/08/04 13:08:19;;;;;;;18.90;11.20;;;;;;;;;;5071078;28;20025;-76
2022/08/04 13:10:46;;;;;;;15.13;8.50;;;;;;;;;;5071432;28;20021;-76
2022/08/04 13:13:16;;;;;;;3.75;3.08;;;;;;;;;;5072141;28;20384;-76
2022/08/04 13:15:42;;;;;;;3.22;2.95;;;;;;;;;;5072244;28;20127;-77
2022/08/04 13:18:08;;;;;;;3.35;3.13;;;;;;;;;;5073557;28;20052;-77
2022/08/04 13:20:35;;;;;;;10.57;5.78;;;;;;;;;;5071886;28;20028;-77
2022/08/04 13:23:08;;;;;;;24.10;10.13;;;;;;;;;;5073007;28;20468;-77
2022/08/04 13:25:38;;;;;;;3.45;3.15;;;;;;;;;;5072003;28;20457;-76
2022/08/04 13:28:05;;;;;;;12.82;6.45;;;;;;;;;;5072773;28;20028;-77
2022/08/04 13:30:32;;;;;;;3.17;2.95;;;;;;;;;;5073043;28;20017;-77
2022/08/04 13:32:59;;;;;;;3.05;2.80;;;;;;;;;;5072819;28;20021;-77
2022/08/04 13:35:25;;;;;;;3.13;3.03;;;;;;;;;;5072690;28;20020;-74
2022/08/04 13:37:51;;;;;;;4.22;3.90;;;;;;;;;;5072692;28;20097;-74
2022/08/04 13:40:20;;;;;;;5.63;2.97;;;;;;;;;;5072661;28;20020;-74
2022/08/04 13:42:46;;;;;;;3.42;3.10;;;;;;;;;;5072574;28;20081;-75
2022/08/04 13:45:12;;;;;;;3.28;3.08;;;;;;;;;;5071216;28;20021;-74
2022/08/04 13:47:39;;;;;;;2.70;2.50;;;;;;;;;;5071189;28;20032;-75
2022/08/04 13:50:05;;;;;;;2.85;2.65;;;;;;;;;;5072467;28;20024;-74
2022/08/04 13:52:32;;;;;;;3.38;2.95;;;;;;;;;;5072442;28;20048;-74
2022/08/04 13:54:57;;;;;;;4.22;3.22;;;;;;;;;;5072517;28;20036;-74
2022/08/04 13:57:28;;;;;;;3.08;2.50;;;;;;;;;;5072535;28;20024;-74
2022/08/04 13:59:53;;;;;;;;;;;;;;;;;;5071739;28;20060;-74
2022/08/04 14:02:36;;;;;;;3.40;3.20;;;;;;;;;;5072429;28;20363;-74
2022/08/04 14:05:12;;;;;;;5.05;3.30;;;;;;;;;;5072845;28;20112;-74
2022/08/04 14:07:49;;;;;;;3.83;3.13;;;;;;;;;;5072815;28;20031;-74
2022/08/04 14:10:15;;;;;;;2.75;2.65;;;;;;;;;;5072976;28;20024;-74
2022/08/04 14:12:47;;;;;;;3.60;3.30;;;;;;;;;;5071724;28;20028;-74
2022/08/04 14:15:29;;;;;;;3.20;2.50;;;;;;;;;;5071696;28;20056;-74
2022/08/04 14:18:14;;;;;;;5.00;3.88;;;;;;;;;;5070977;28;20387;-74
2022/08/04 14:20:57;;;;;;;4.10;3.33;;;;;;;;;;5072543;28;20094;-74
2022/08/04 14:23:23;;;;;;;4.78;3.53;;;;;;;;;;5073423;28;20449;-74
2022/08/04 14:25:50;;;;;;;3.35;3.15;;;;;;;;;;5077304;28;20026;-74
2022/08/04 14:28:25;;;;;;;3.47;3.20;;;;;;;;;;5077452;28;20388;-74
2022/08/04 14:30:51;;;;;;;4.57;3.78;;;;;;;;;;5077500;28;20024;-74
2022/08/04 14:33:17;;;;;;;3.85;3.38;;;;;;;;;;5077443;28;20082;-74
2022/08/04 14:35:54;;;;;;;3.90;3.65;;;;;;;;;;5076249;28;20357;-74
2022/08/04 14:38:20;;;;;;;4.07;3.60;;;;;;;;;;5075956;28;20384;-74
2022/08/04 14:40:47;;;;;;;4.30;3.08;;;;;;;;;;5075998;28;20043;-74
2022/08/04 14:43:16;;;;;;;4.30;2.65;;;;;;;;;;5075902;28;20024;-74
2022/08/04 14:45:42;;;;;;;3.25;2.97;;;;;;;;;;5075955;28;20020;-74
2022/08/04 14:48:08;;;;;;;4.15;3.10;;;;;;;;;;5075738;28;20388;-74
2022/08/04 14:50:34;;;;;;;3.72;3.33;;;;;;;;;;5074577;28;20024;-74
2022/08/04 14:53:09;;;;;;;6.25;3.25;;;;;;;;;;5074464;28;20036;-74
2022/08/04 14:55:36;;;;;;;2.90;2.70;;;;;;;;;;5075665;28;20020;-73
2022/08/04 14:58:02;;;;;;;3.85;2.80;;;;;;;;;;5075612;28;20353;-72
2022/08/04 15:00:32;;;;;;;2.50;2.40;;;;;;;;;;5075616;28;20028;-73
2022/08/04 15:03:03;;;;;;;3.40;3.10;;;;;;;;;;5074251;28;20036;-72
2022/08/04 15:05:29;;;;;;;2.83;2.72;;;;;;;;;;5075509;28;20287;-72
2022/08/04 15:07:54;;;;;;;4.03;2.75;;;;;;;;;;5075418;28;20028;-72
2022/08/04 15:10:21;;;;;;;2.88;2.70;;;;;;;;;;5074129;28;20125;-72
2022/08/04 15:12:47;;;;;;;2.70;2.60;;;;;;;;;;5075355;28;20510;-72
2022/08/04 15:15:13;;;;;;;2.53;2.42;;;;;;;;;;5074917;28;20032;-72
2022/08/04 15:17:39;;;;;;;3.53;2.85;;;;;;;;;;5072632;28;20093;-72